Madison, Wisconsin
Current Conditions -  °F | °C
As of 7:53 PM on Sunday 25 Jan 2015 (Local Time) from KMSN Reporting Station
Few Clouds Few Clouds  
Wind Chill:   Ceiling: Unl
Heat Index: 16°   Visibility: 10mi
Dew Point: 10°   Wind: 8mph
Humidity: 77%   Direction: 10°N
Pressure: 30.04"   Gusts: NA
Location:  43.07°N, 89.39°W
Report Text: KMSN 260153Z 01007KT 10SM FEW150 M09/M12 A3004 RMK AO2 SLP188 T10891122
Loading
Personal Weather Stations






























Interactive Weather Map New forecast layout! Learn more

10-Day Weather Forecast

Advertisements
Track Severe Weather on mobile